Current Conditions
Partly Cloudy
Conditions



Pressure
1011.92 (hPa) - 29.88 (inHG)
Visibility

10.0 (km) - 6.2 (miles)
Temperature
6  °C
Temperature
4  °C
Dewpoint
87  %
 Humidity
Wind Speed
14  km/h
8  kts
9  mph
4.0  m/s
Wind Direction
N
45°
E
90°
135°
S
180°
225°
W
270°
315°
 170°

Due South
Airport Data
LFOA
Avord (BA 702) Air Base
Metar :LFOA 071000Z AUTO 17008KT 9999 FEW042 SCT150 06/04 Q1012 NOSIG
Tue 7th December 12:00 pm
Raw Metar Info
Raw METAR is the most common format in the world for the transmission of observational weather data. It is highly standardized through the International Civil Aviation Organization (ICAO), which allows it to be understood throughout most of the world.
API Info
Data Provided by
https://www.checkwx.com/weather/LFOA

Aviation Weather providing METAR, TAF, AIRMET, SIGMET and OUTLOOK Weather Reports
© Info
CSS/SVG/PHP scripts were developed by weather34.com for use in the weather34 template © 2015-2021

Guide Info provided by Metar-Wikipedia